Portada
METAR-TAF:

METAR-TAF

Aeroports :

Aeroport de Rabat

Rabat, Marroc

latitud: 34-03N, longitud: 006-46W, altitud: 84 m

Observació

L'informe es va fer fa 17 minuts, a les 08:30 UTC
Vent 2 kt amb direcció variable
Temperatura 23°C
Humitat 83%
Pressió 1018 hPa
Visibilitat: 4000 m
Escasses núvols a una alçada de 1000 ft
boirina

METAR: GMME 250830Z VRB02KT 4000 BR FEW010 23/20 Q1018 TEMPO 5000

Hora: 09:47 (08:47 UTC)

Pronòstic

L'informe es va fer fa 3 hores i 47 minuts, a les 05:00 UTC
Pronòstic vàlid del 25 a les 06 UTC al 26 a les 12 UTC
Vent 8 kt del Nord-Oest
Visibilitat: 8000 m
Temporalment
l' 26 a les 00 UTC al 26 a les 08 UTC
Vent 2 kt amb direcció variable
Visibilitat: 3000 m
Cel ennuvolat a una alçada de 800 ft
boirina

TAF: GMME 250500Z 2506/2612 320008KT 8000 NSC TEMPO 2600/2608 VRB02KT 3000 BR BKN008

Observacions i pronòstics meteorològics de més de 4000 aeroports (METAR i TAF).

Les estacions disponibles són els punts grocs i vermells al mapa.

Posi el ratolí al punt desitjat per veure el nom de l'estació.

Feu clic per veure les observacions i els pronòstics meteorològics.

Per canviar el mapa: feu clic els botons verds amb una creu de color negre per apropar; al botó verd amb un guió per allunyar la imatge; o en les fletxes verdes per a mapes adjacents.


METAR-TAF: